Huvudsida
METAR-TAF:

METAR-TAF

Flygplatser :

Kuusamo flygplats

Kuusamo, Finland

latitud: 65-58N, longitud: 029-11E, höjd: 262 m

Aktuellt väderrapport

Denna rapport gjordes för 43 minuter sedan, klockan 07:50 UTC
Vind 2 kt varierande vindriktning
Temperatur -7°C
Fuktighet 93%
Tryck 999 hPa
Sikt 10 km eller mer
Mulet på en höjd av 400 ft

METAR: EFKS 250750Z VRB02KT 9999 OVC004 M07/M08 Q0999

Tid: 10:33 (08:33 UTC)

Väderprognos

Denna rapport gjordes för 2 timmar och 59 minuter sedan, klockan 05:34 UTC
Prognos gäller från 25 kl. 06 UTC till 25 kl. 12 UTC
Vind 2 kt från ost
Sikt 10 km eller mer
Brutna moln på en höjd av 300 ft
Temporärt
från 25 kl. 06 UTC till 25 kl. 12 UTC
Sikt: 5000 m
Spridda moln på en höjd av 400 ft
Brutna moln på en höjd av 2000 ft
lätt snö

TAF: EFKS 250534Z 2506/2512 09002KT 9999 BKN003 TEMPO 2506/2512 5000 -SN SCT004 BKN020

Aktuella väderrapporter och prognoser från 4000 flygplatser (METAR- och TAF-rapporter).

De tillgängliga stationerna syns som gula och röda prickar på kartan.

För musen över prickarna för att se namnen på stationerna.

Klicka sedan för att få väderrapporter och prognoser.

För att ändra kartan: Klicka på de gröna knapparna med ett svart kors på för att zooma in; den gröna knappen med ett streck på för att zooma ut; eller på de gröna pilarna för angränsande kartor.


METAR-TAF: